createdAt,value
2022-11-01T00:03:54.558Z,0.11
2022-11-01T00:08:57.213Z,0.44
2022-11-01T00:13:59.516Z,0.30
2022-11-01T00:19:01.898Z,0.61
2022-11-01T00:24:04.608Z,0.50
2022-11-01T00:29:06.968Z,0.27
2022-11-01T00:34:09.405Z,-0.48
2022-11-01T00:39:16.223Z,0.30
2022-11-01T00:44:33.763Z,0.49
2022-11-01T00:49:35.997Z,0.35
2022-11-01T00:54:38.169Z,0.26
2022-11-01T00:59:59.163Z,0.25
2022-11-01T01:05:01.479Z,0.27
2022-11-01T01:10:06.605Z,0.46
2022-11-01T01:15:27.630Z,0.22
2022-11-01T01:20:29.884Z,0.14
2022-11-01T01:25:32.788Z,0.01
2022-11-01T01:30:35.114Z,0.17
2022-11-01T01:35:40.407Z,-0.07
2022-11-01T01:40:42.762Z,0.14
2022-11-01T01:45:45.024Z,0.12
2022-11-01T01:51:10.569Z,0.19
2022-11-01T01:56:20.367Z,0.02
2022-11-01T02:01:42.119Z,0.14
2022-11-01T02:06:44.457Z,0.04
2022-11-01T02:11:47.102Z,-0.18
2022-11-01T02:17:08.599Z,0.33
2022-11-01T02:22:38.794Z,0.33
2022-11-01T02:28:02.186Z,0.28
2022-11-01T02:33:29.410Z,0.42
2022-11-01T02:38:47.234Z,0.35
2022-11-01T02:44:00.492Z,0.03
2022-11-01T02:49:03.348Z,0.25
2022-11-01T02:54:21.242Z,0.09
2022-11-01T02:59:25.895Z,0.08
2022-11-01T03:04:47.794Z,0.31
2022-11-01T03:09:50.178Z,0.07
2022-11-01T03:15:04.390Z,-0.06
2022-11-01T03:20:09.977Z,-0.40
2022-11-01T03:25:40.197Z,0.31
2022-11-01T03:30:44.708Z,0.42
2022-11-01T03:35:49.604Z,0.07
2022-11-01T03:41:01.330Z,-0.14
2022-11-01T03:46:03.850Z,-0.44
2022-11-01T03:51:06.116Z,-0.13
2022-11-01T03:56:08.319Z,-0.21
2022-11-01T04:01:17.658Z,0.15
2022-11-01T04:06:20.122Z,0.03
2022-11-01T04:11:22.349Z,-0.36
2022-11-01T04:16:43.051Z,0.16
2022-11-01T04:22:04.524Z,-0.08
2022-11-01T04:27:06.827Z,0.02
2022-11-01T04:32:09.095Z,0.11
2022-11-01T04:37:12.305Z,-0.09
2022-11-01T04:42:16.986Z,0.05
2022-11-01T04:47:19.260Z,-0.17
2022-11-01T04:52:21.527Z,-0.60
2022-11-01T04:57:23.700Z,0.08
2022-11-01T05:02:25.922Z,-0.24
2022-11-01T05:07:28.950Z,-0.05
2022-11-01T05:12:31.173Z,-1.03
2022-11-01T05:17:33.455Z,-0.52
2022-11-01T05:22:35.678Z,-0.01
2022-11-01T05:27:41.041Z,0.26
2022-11-01T05:32:43.265Z,0.01
2022-11-01T05:37:46.642Z,-0.40
2022-11-01T05:42:50.290Z,-0.79
2022-11-01T05:48:12.322Z,-0.12
2022-11-01T05:53:33.461Z,-0.08
2022-11-01T05:58:37.552Z,-0.36
2022-11-01T06:04:02.279Z,-0.19
2022-11-01T06:09:04.634Z,0.37
2022-11-01T06:14:06.923Z,0.08
2022-11-01T06:19:09.579Z,0.33
2022-11-01T06:24:11.993Z,-0.28
2022-11-01T06:29:14.236Z,-0.33
2022-11-01T06:34:16.708Z,0.32
2022-11-01T06:39:19.207Z,0.42
2022-11-01T06:44:22.484Z,-3.01
2022-11-01T06:49:24.790Z,0.01
2022-11-01T06:54:27.823Z,-2.02
2022-11-01T06:59:30.170Z,-1.18
2022-11-01T07:04:32.641Z,-2.43
2022-11-01T07:09:36.097Z,0.65
2022-11-01T07:14:38.328Z,0.69
2022-11-01T07:19:41.347Z,-0.12
2022-11-01T07:25:02.241Z,-0.10
2022-11-01T07:30:06.120Z,0.53
2022-11-01T07:35:08.689Z,0.43
2022-11-01T07:40:11.714Z,0.55
2022-11-01T07:45:14.676Z,0.38
2022-11-01T07:50:35.731Z,0.49
2022-11-01T07:55:38.405Z,0.72
2022-11-01T08:00:41.290Z,0.62
2022-11-01T08:05:44.392Z,0.64
2022-11-01T08:10:47.064Z,0.33
2022-11-01T08:15:50.399Z,0.50
2022-11-01T08:20:52.736Z,0.46
2022-11-01T08:25:55.009Z,0.47
2022-11-01T08:30:57.370Z,0.32
2022-11-01T08:35:59.668Z,0.25
2022-11-01T08:41:01.963Z,0.49
2022-11-01T08:46:04.311Z,0.68
2022-11-01T08:51:06.765Z,0.60
2022-11-01T08:56:08.952Z,0.06
2022-11-01T09:01:29.799Z,0.73
2022-11-01T09:06:36.376Z,1.18
2022-11-01T09:11:41.183Z,0.97
2022-11-01T09:16:43.381Z,0.72
2022-11-01T09:21:46.217Z,0.82
2022-11-01T09:26:48.456Z,0.85
2022-11-01T09:31:54.452Z,0.79
2022-11-01T09:36:56.906Z,1.16
2022-11-01T09:42:02.306Z,1.02
2022-11-01T09:47:08.461Z,0.96
2022-11-01T09:52:19.280Z,1.23
2022-11-01T09:57:49.711Z,1.19
2022-11-01T10:03:01.035Z,1.44
2022-11-01T10:08:10.007Z,1.46
2022-11-01T10:13:56.816Z,1.51
2022-11-01T10:19:19.654Z,1.18
2022-11-01T10:24:39.443Z,1.59
2022-11-01T10:30:03.284Z,1.44
2022-11-01T10:35:15.254Z,1.19
2022-11-01T10:40:23.633Z,0.83
2022-11-01T10:45:26.033Z,1.30
2022-11-01T10:50:29.389Z,1.28
2022-11-01T10:55:48.614Z,1.42
2022-11-01T11:00:50.946Z,1.29
2022-11-01T11:05:54.304Z,1.16
2022-11-01T11:10:59.789Z,1.21
2022-11-01T11:16:06.804Z,1.12
2022-11-01T11:21:14.146Z,1.36
2022-11-01T11:26:19.458Z,1.54
2022-11-01T11:31:24.898Z,1.32
2022-11-01T11:36:30.738Z,1.40
2022-11-01T11:41:39.465Z,1.28
2022-11-01T11:46:59.207Z,1.16
2022-11-01T11:52:04.377Z,1.12
2022-11-01T11:57:31.142Z,1.05
2022-11-01T12:02:36.642Z,1.47
2022-11-01T12:07:48.089Z,1.47
2022-11-01T12:12:52.956Z,1.18
2022-11-01T12:17:55.690Z,1.32
2022-11-01T12:23:13.232Z,1.65
2022-11-01T12:28:27.500Z,1.67
2022-11-01T12:33:37.572Z,1.66
2022-11-01T12:38:50.339Z,1.65
2022-11-01T12:43:52.415Z,1.66
2022-11-01T12:48:57.086Z,1.40
2022-11-01T12:54:12.377Z,1.68
2022-11-01T12:59:20.533Z,1.13
2022-11-01T13:04:34.871Z,1.57
2022-11-01T13:09:52.227Z,1.62
2022-11-01T13:15:35.997Z,1.60
2022-11-01T13:20:44.504Z,1.26
2022-11-01T13:26:04.498Z,1.40
2022-11-01T13:31:08.858Z,1.69
2022-11-01T13:37:04.726Z,0.84
2022-11-01T13:42:17.871Z,1.37
2022-11-01T13:47:38.301Z,1.56
2022-11-01T13:53:02.880Z,1.27
2022-11-01T13:58:08.490Z,1.20
2022-11-01T14:03:18.644Z,1.26
2022-11-01T14:08:42.384Z,1.44
2022-11-01T14:13:47.994Z,1.20
2022-11-01T14:19:19.104Z,1.36
2022-11-01T14:24:34.598Z,1.21
2022-11-01T14:29:37.640Z,1.13
2022-11-01T14:34:41.564Z,1.03
2022-11-01T14:40:31.625Z,1.26
2022-11-01T14:45:40.382Z,1.16
2022-11-01T14:50:46.018Z,1.43
2022-11-01T14:55:50.579Z,1.19
2022-11-01T15:00:55.250Z,1.43
2022-11-01T15:05:57.530Z,1.22
2022-11-01T15:11:02.629Z,1.36
2022-11-01T15:16:23.325Z,1.38
2022-11-01T15:21:47.305Z,1.53
2022-11-01T15:26:50.260Z,1.06
2022-11-01T15:31:57.573Z,1.42
2022-11-01T15:37:10.954Z,1.55
2022-11-01T15:42:20.602Z,1.53
2022-11-01T15:47:25.103Z,1.45
2022-11-01T15:52:33.303Z,1.31
2022-11-01T15:57:41.955Z,1.28
2022-11-01T16:02:48.999Z,1.51
2022-11-01T16:07:51.633Z,1.51
2022-11-01T16:12:55.600Z,1.38
2022-11-01T16:18:00.303Z,1.37
2022-11-01T16:23:28.187Z,1.15
2022-11-01T16:28:50.792Z,1.54
2022-11-01T16:34:27.423Z,1.34
2022-11-01T16:39:32.845Z,1.44
2022-11-01T16:44:35.113Z,1.72
2022-11-01T16:49:37.492Z,1.54
2022-11-01T16:54:39.748Z,1.59
2022-11-01T16:59:42.401Z,1.32
2022-11-01T17:04:46.334Z,1.22
2022-11-01T17:10:21.764Z,1.62
2022-11-01T17:15:27.024Z,1.80
2022-11-01T17:20:29.387Z,1.54
2022-11-01T17:25:51.831Z,1.74
2022-11-01T17:30:55.031Z,1.80
2022-11-01T17:35:58.924Z,1.63
2022-11-01T17:41:20.135Z,1.63
2022-11-01T17:46:25.546Z,1.54
2022-11-01T17:51:28.035Z,1.70
2022-11-01T17:56:30.351Z,1.76
2022-11-01T18:01:51.202Z,1.76
2022-11-01T18:07:13.077Z,1.66
2022-11-01T18:12:38.859Z,1.69
2022-11-01T18:17:54.083Z,1.81
2022-11-01T18:23:18.393Z,1.55
2022-11-01T18:28:32.048Z,1.81
2022-11-01T18:33:48.692Z,1.78
2022-11-01T18:39:54.527Z,1.82
2022-11-01T18:44:58.860Z,1.45
2022-11-01T18:50:12.789Z,1.55
2022-11-01T18:55:18.536Z,1.62
2022-11-01T19:00:20.809Z,1.08
2022-11-01T19:05:24.839Z,1.50
2022-11-01T19:10:28.813Z,1.57
2022-11-01T19:15:33.906Z,1.60
2022-11-01T19:20:40.171Z,1.58
2022-11-01T19:25:46.251Z,1.65
2022-11-01T19:30:52.830Z,1.47
2022-11-01T19:35:55.631Z,1.64
2022-11-01T19:40:58.140Z,0.88
2022-11-01T19:46:00.495Z,1.49
2022-11-01T19:51:02.945Z,1.57
2022-11-01T19:56:08.025Z,1.25
2022-11-01T20:01:25.858Z,1.49
2022-11-01T20:06:32.601Z,1.62
2022-11-01T20:11:35.131Z,1.34
2022-11-01T20:16:37.440Z,1.41
2022-11-01T20:21:40.073Z,1.44
2022-11-01T20:26:45.289Z,1.43
2022-11-01T20:32:06.311Z,1.51
2022-11-01T20:37:28.920Z,1.54
2022-11-01T20:42:31.805Z,1.34
2022-11-01T20:47:34.080Z,1.58
2022-11-01T20:52:40.244Z,1.39
2022-11-01T20:57:42.760Z,0.74
2022-11-01T21:02:46.668Z,1.03
2022-11-01T21:07:49.292Z,0.97
2022-11-01T21:12:51.642Z,1.33
2022-11-01T21:18:05.939Z,1.66
2022-11-01T21:23:35.856Z,1.69
2022-11-01T21:28:42.444Z,1.06
2022-11-01T21:34:06.459Z,1.61
2022-11-01T21:39:15.723Z,1.51
2022-11-01T21:44:40.887Z,1.62
2022-11-01T21:49:43.697Z,1.43
2022-11-01T21:54:46.724Z,1.50
2022-11-01T21:59:48.950Z,1.52
2022-11-01T22:04:51.293Z,1.62
2022-11-01T22:10:12.093Z,1.30
2022-11-01T22:15:33.274Z,1.50
2022-11-01T22:20:35.505Z,1.17
2022-11-01T22:25:56.246Z,1.30
2022-11-01T22:30:58.500Z,1.46
2022-11-01T22:36:01.164Z,1.51
2022-11-01T22:41:29.920Z,1.61
2022-11-01T22:46:56.803Z,1.65
2022-11-01T22:52:31.843Z,1.66
2022-11-01T22:57:35.909Z,1.56
2022-11-01T23:02:39.333Z,1.39
2022-11-01T23:07:51.751Z,1.61
2022-11-01T23:13:30.628Z,1.60
2022-11-01T23:18:33.890Z,1.35
2022-11-01T23:23:37.395Z,1.33
2022-11-01T23:28:48.335Z,1.18
2022-11-01T23:33:51.161Z,1.32
2022-11-01T23:38:55.791Z,1.34
2022-11-01T23:43:58.852Z,1.47
2022-11-01T23:49:13.682Z,1.54
2022-11-01T23:54:34.808Z,1.64
2022-11-01T23:59:36.999Z,1.30
